Snow/Ice From: 16-12-2017 16:00 Until: 17-12-2017 16:00 warning for: Snow/Ice Level: Yellow info button

Although rather usual in this region, locally or potentially dangerous phenomena are expected. (such as local winds, summer thunderstorms, rising streams or high waves) Be aware and pay attention to the latest weather updates, especially if you carry out activities exposed to weather or close to a stream or shoreline. 


Meteo18 Weather Cam more information Meteo18 Weather Cam


Thunder radar more information blitzortung!


warning for Snow/Ice more information rain snow radar


Visit our other weather sites:

Template documentation
and downloads

And another site



Weather Underground History page Text

Daily Summary for July 9, 2017 Units:  Metric    English   Both
« Previous Day
Next Day »
Daily Weekly Monthly Yearly Custom
  High: Low: Average:
Temperature: 28.1 °C 17.3 °C 20.8 °C
Dew Point: 20.0 °C 16.5 °C 18.3 °C
Humidity: 97 % 52 % 87 %
Wind Speed: 32.2 km/h 0.0 km/h 2.6 km/h
Wind Gust: 33.8 km/h - -
Wind:- - SE
Pressure: 1015.8 hPa 1010.4 hPa -
Precipitation: 14.5 mm    
Historical Graphs
 
 
Tabular Data for July 9, 2017
Time Temperature Dew Point Pressure Wind Wind Speed Wind Gust Humidity Rainfall Rate (Hourly)
00:02 19.6 °C 17.7 °C 1015.8 hPa NNE 6.4 km/h 6.4 km/h 89 % 1.5 mm
00:07 19.6 °C 17.9 °C 1015.5 hPa NNE 3.2 km/h 8.0 km/h 90 % 1.3 mm
00:12 19.5 °C 18.0 °C 1015.5 hPa North 4.8 km/h 8.0 km/h 91 % 0.8 mm
00:17 19.6 °C 17.9 °C 1015.5 hPa NW 1.6 km/h 9.7 km/h 90 % 0.5 mm
00:22 19.7 °C 18.0 °C 1015.5 hPa NW 4.8 km/h 9.7 km/h 90 % 0.8 mm
00:32 19.6 °C 17.9 °C 1015.1 hPa NW 6.4 km/h 8.0 km/h 90 % 0.5 mm
00:37 19.6 °C 18.1 °C 1015.5 hPa NW 11.3 km/h 11.3 km/h 91 % 0.5 mm
00:42 19.8 °C 17.9 °C 1015.5 hPa NNW 1.6 km/h 11.3 km/h 89 % 0.3 mm
00:47 19.8 °C 17.9 °C 1015.5 hPa SSW 11.3 km/h 11.3 km/h 89 % 0.3 mm
00:52 19.7 °C 17.8 °C 1015.5 hPa WSW 4.8 km/h 12.9 km/h 89 % 0.3 mm
00:57 19.8 °C 17.8 °C 1015.5 hPa Calm   12.9 km/h 88 % 0.3 mm
01:02 19.7 °C 17.7 °C 1015.5 hPa SSW 3.2 km/h 12.9 km/h 88 % 0.3 mm
01:07 19.7 °C 17.7 °C 1015.5 hPa Calm   14.5 km/h 88 % 0.3 mm
01:17 19.6 °C 17.7 °C 1015.1 hPa Calm   12.9 km/h 89 % 0.3 mm
01:22 19.6 °C 17.9 °C 1015.1 hPa Calm   3.2 km/h 90 % 0.0 mm
01:27 19.6 °C 17.9 °C 1015.1 hPa Calm   1.6 km/h 90 % 0.0 mm
01:32 19.6 °C 17.9 °C 1014.8 hPa Calm   1.6 km/h 90 % 0.0 mm
01:37 19.6 °C 17.9 °C 1014.8 hPa Calm   1.6 km/h 90 % 0.0 mm
01:42 19.6 °C 18.1 °C 1014.8 hPa Calm   1.6 km/h 91 % 0.0 mm
01:52 19.3 °C 17.8 °C 1014.8 hPa Calm   3.2 km/h 91 % 0.0 mm
01:57 19.3 °C 18.0 °C 1015.1 hPa SW 1.6 km/h 3.2 km/h 92 % 0.0 mm
02:02 19.2 °C 17.9 °C 1014.8 hPa Calm   3.2 km/h 92 % 0.0 mm
02:07 19.2 °C 17.9 °C 1014.8 hPa Calm   3.2 km/h 92 % 0.0 mm
02:12 19.2 °C 18.0 °C 1014.8 hPa Calm   3.2 km/h 93 % 0.0 mm
02:17 19.2 °C 18.0 °C 1014.8 hPa Calm   1.6 km/h 93 % 0.0 mm
02:22 19.1 °C 17.9 °C 1014.8 hPa Calm     93 % 0.0 mm
02:27 19.2 °C 18.0 °C 1014.4 hPa Calm   1.6 km/h 93 % 0.0 mm
02:32 19.2 °C 18.0 °C 1014.4 hPa Calm   1.6 km/h 93 % 0.0 mm
02:42 19.2 °C 18.0 °C 1014.4 hPa Calm   1.6 km/h 93 % 0.0 mm
02:52 19.2 °C 18.0 °C 1014.4 hPa Calm   1.6 km/h 93 % 0.0 mm
02:57 19.1 °C 17.9 °C 1014.4 hPa Calm   1.6 km/h 93 % 0.0 mm
03:02 19.1 °C 17.9 °C 1014.1 hPa Calm   1.6 km/h 93 % 0.0 mm
03:07 19.0 °C 17.8 °C 1014.1 hPa Calm   1.6 km/h 93 % 0.0 mm
03:12 19.0 °C 17.8 °C 1013.8 hPa WNW 1.6 km/h 1.6 km/h 93 % 0.0 mm
03:22 18.9 °C 17.7 °C 1014.1 hPa Calm   3.2 km/h 93 % 0.0 mm
03:27 18.9 °C 17.7 °C 1014.1 hPa SE 1.6 km/h 3.2 km/h 93 % 0.0 mm
03:32 18.9 °C 17.9 °C 1013.8 hPa Calm   3.2 km/h 94 % 0.0 mm
03:37 18.8 °C 17.8 °C 1013.8 hPa Calm   3.2 km/h 94 % 0.0 mm
03:42 18.8 °C 17.8 °C 1013.8 hPa Calm   3.2 km/h 94 % 0.0 mm
03:47 18.7 °C 17.7 °C 1014.1 hPa SSE 1.6 km/h 1.6 km/h 94 % 0.0 mm
03:52 18.6 °C 17.6 °C 1014.1 hPa East 1.6 km/h 1.6 km/h 94 % 0.0 mm
03:57 18.5 °C 17.5 °C 1013.8 hPa Calm   3.2 km/h 94 % 0.0 mm
04:02 18.4 °C 17.4 °C 1013.8 hPa Calm   3.2 km/h 94 % 0.0 mm
04:12 18.3 °C 17.5 °C 1013.8 hPa Calm   1.6 km/h 95 % 0.0 mm
04:17 18.3 °C 17.5 °C 1013.8 hPa Calm   1.6 km/h 95 % 0.0 mm
04:22 18.3 °C 17.5 °C 1013.8 hPa Calm   1.6 km/h 95 % 0.0 mm
04:27 18.3 °C 17.5 °C 1013.8 hPa Calm     95 % 0.0 mm
04:32 18.2 °C 17.4 °C 1013.8 hPa Calm     95 % 0.0 mm
04:37 18.1 °C 17.3 °C 1013.8 hPa Calm     95 % 0.0 mm
04:42 18.1 °C 17.3 °C 1013.4 hPa Calm     95 % 0.0 mm
04:47 18.0 °C 17.2 °C 1013.4 hPa Calm     95 % 0.0 mm
04:52 17.9 °C 17.1 °C 1013.4 hPa Calm     95 % 0.0 mm
04:57 17.9 °C 17.1 °C 1013.4 hPa Calm     95 % 0.0 mm
05:02 17.9 °C 17.1 °C 1013.4 hPa Calm     95 % 0.0 mm
05:07 17.9 °C 17.3 °C 1013.4 hPa Calm     96 % 0.0 mm
05:12 17.9 °C 17.1 °C 1013.4 hPa Calm     95 % 0.0 mm
05:17 17.8 °C 17.0 °C 1013.4 hPa Calm     95 % 0.0 mm
05:22 17.8 °C 17.0 °C 1013.4 hPa North 3.2 km/h 3.2 km/h 95 % 0.0 mm
05:27 17.7 °C 17.1 °C 1013.1 hPa North 3.2 km/h 4.8 km/h 96 % 0.0 mm
05:32 17.7 °C 17.1 °C 1013.4 hPa Calm   4.8 km/h 96 % 0.0 mm
05:37 17.7 °C 17.1 °C 1013.4 hPa Calm   4.8 km/h 96 % 0.0 mm
05:42 17.6 °C 17.0 °C 1013.4 hPa Calm   3.2 km/h 96 % 0.0 mm
05:47 17.6 °C 17.0 °C 1013.4 hPa Calm     96 % 0.0 mm
05:52 17.6 °C 17.0 °C 1013.4 hPa Calm     96 % 0.0 mm
05:57 17.6 °C 17.0 °C 1013.4 hPa Calm     96 % 0.0 mm
06:02 17.6 °C 17.0 °C 1013.4 hPa Calm     96 % 0.0 mm
06:07 17.7 °C 17.1 °C 1013.4 hPa Calm     96 % 0.0 mm
06:12 17.6 °C 17.0 °C 1013.4 hPa Calm   1.6 km/h 96 % 0.0 mm
06:17 17.6 °C 17.0 °C 1013.4 hPa Calm   1.6 km/h 96 % 0.0 mm
06:22 17.3 °C 16.5 °C 1013.4 hPa Calm   1.6 km/h 95 % 0.0 mm
06:32 17.4 °C 16.8 °C 1013.4 hPa Calm     96 % 0.0 mm
06:37 17.5 °C 16.9 °C 1013.4 hPa Calm     96 % 0.0 mm
06:42 17.6 °C 17.0 °C 1013.4 hPa Calm     96 % 0.0 mm
06:47 17.6 °C 17.0 °C 1013.4 hPa NNW 3.2 km/h   96 % 0.0 mm
06:52 17.6 °C 17.0 °C 1013.4 hPa NW 4.8 km/h 6.4 km/h 96 % 0.0 mm
06:57 17.6 °C 17.0 °C 1013.1 hPa North 1.6 km/h 8.0 km/h 96 % 0.0 mm
07:02 17.7 °C 17.1 °C 1013.4 hPa Calm   8.0 km/h 96 % 0.0 mm
07:12 17.9 °C 17.3 °C 1013.4 hPa NNW 3.2 km/h 6.4 km/h 96 % 0.0 mm
07:17 18.1 °C 17.6 °C 1013.1 hPa Calm   6.4 km/h 97 % 0.0 mm
07:22 18.3 °C 17.8 °C 1013.1 hPa NNW 1.6 km/h 4.8 km/h 97 % 0.0 mm
07:27 18.4 °C 17.9 °C 1013.1 hPa North 4.8 km/h 4.8 km/h 97 % 0.0 mm
07:32 18.6 °C 17.9 °C 1013.1 hPa Calm   3.2 km/h 96 % 0.0 mm
07:37 18.7 °C 18.0 °C 1013.1 hPa Calm   4.8 km/h 96 % 0.0 mm
07:42 18.7 °C 18.0 °C 1013.1 hPa Calm   4.8 km/h 96 % 0.0 mm
07:47 18.8 °C 18.1 °C 1012.8 hPa NNW 1.6 km/h 4.8 km/h 96 % 0.0 mm
07:52 18.9 °C 18.2 °C 1012.8 hPa North 1.6 km/h 6.4 km/h 96 % 0.0 mm
07:57 19.0 °C 18.3 °C 1012.8 hPa Calm   6.4 km/h 96 % 0.0 mm
08:02 19.1 °C 18.4 °C 1012.8 hPa NNW 1.6 km/h 6.4 km/h 96 % 0.0 mm
08:07 19.3 °C 18.6 °C 1012.8 hPa NNW 3.2 km/h 4.8 km/h 96 % 0.0 mm
08:12 19.4 °C 18.7 °C 1012.8 hPa Calm   3.2 km/h 96 % 0.0 mm
08:17 19.6 °C 18.9 °C 1012.8 hPa Calm   3.2 km/h 96 % 0.0 mm
08:22 19.9 °C 19.2 °C 1012.8 hPa NNE 1.6 km/h 3.2 km/h 96 % 0.0 mm
08:32 20.1 °C 19.3 °C 1013.4 hPa Calm   4.8 km/h 95 % 0.0 mm
08:42 20.1 °C 19.1 °C 1013.4 hPa Calm   4.8 km/h 94 % 0.0 mm
08:47 20.2 °C 19.0 °C 1013.4 hPa Calm   4.8 km/h 93 % 0.0 mm
08:52 20.3 °C 19.1 °C 1013.4 hPa Calm   4.8 km/h 93 % 0.0 mm
08:57 20.4 °C 19.2 °C 1013.4 hPa Calm   3.2 km/h 93 % 0.0 mm
09:02 20.6 °C 19.4 °C 1013.4 hPa NNE 1.6 km/h 3.2 km/h 93 % 0.0 mm
09:07 20.6 °C 19.3 °C 1013.4 hPa Calm   4.8 km/h 92 % 0.0 mm
09:12 20.7 °C 19.4 °C 1013.8 hPa NE 3.2 km/h 4.8 km/h 92 % 0.0 mm
09:17 20.6 °C 19.3 °C 1013.8 hPa East 3.2 km/h 4.8 km/h 92 % 0.0 mm
09:22 20.6 °C 19.3 °C 1013.8 hPa ENE 3.2 km/h 8.0 km/h 92 % 0.0 mm
09:27 20.5 °C 19.2 °C 1014.1 hPa East 3.2 km/h 8.0 km/h 92 % 0.0 mm
09:32 20.4 °C 19.1 °C 1013.8 hPa NNE 1.6 km/h 8.0 km/h 92 % 0.0 mm
09:37 20.4 °C 19.1 °C 1013.8 hPa NE 6.4 km/h 8.0 km/h 92 % 0.0 mm
09:42 20.3 °C 19.1 °C 1013.8 hPa NNE 6.4 km/h 9.7 km/h 93 % 0.0 mm
09:47 20.3 °C 19.1 °C 1013.4 hPa ENE 6.4 km/h 9.7 km/h 93 % 0.0 mm
09:52 20.3 °C 19.1 °C 1013.4 hPa NNE 6.4 km/h 9.7 km/h 93 % 0.0 mm
09:57 20.3 °C 19.1 °C 1013.4 hPa NNE 11.3 km/h 14.5 km/h 93 % 0.0 mm
10:02 20.3 °C 19.1 °C 1013.1 hPa NNE 12.9 km/h 14.5 km/h 93 % 0.0 mm
10:07 20.4 °C 19.2 °C 1013.1 hPa NNE 9.7 km/h 14.5 km/h 93 % 0.0 mm
10:12 20.6 °C 19.4 °C 1012.8 hPa North 9.7 km/h 14.5 km/h 93 % 0.0 mm
10:17 20.5 °C 19.2 °C 1012.8 hPa NNE 11.3 km/h 16.1 km/h 92 % 0.0 mm
10:22 20.6 °C 19.3 °C 1012.4 hPa NE 8.0 km/h 22.5 km/h 92 % 0.0 mm
10:32 20.9 °C 19.4 °C 1012.1 hPa NNW 3.2 km/h 22.5 km/h 91 % 0.0 mm
10:42 21.4 °C 19.3 °C 1012.4 hPa NNE 1.6 km/h 24.1 km/h 88 % 0.0 mm
10:47 21.8 °C 19.7 °C 1012.8 hPa NW 4.8 km/h 20.9 km/h 88 % 0.0 mm
10:52 22.0 °C 19.4 °C 1012.8 hPa NNW 6.4 km/h 14.5 km/h 85 % 0.0 mm
10:57 22.1 °C 19.3 °C 1012.8 hPa East 1.6 km/h 11.3 km/h 84 % 0.0 mm
11:02 22.3 °C 19.5 °C 1012.8 hPa NE 9.7 km/h 11.3 km/h 84 % 0.0 mm
11:07 22.4 °C 19.4 °C 1012.8 hPa Calm   11.3 km/h 83 % 0.0 mm
11:12 22.7 °C 19.5 °C 1012.8 hPa Calm   11.3 km/h 82 % 0.0 mm
11:17 22.8 °C 19.4 °C 1013.1 hPa South 3.2 km/h 11.3 km/h 81 % 0.0 mm
11:22 23.0 °C 19.8 °C 1013.4 hPa SE 1.6 km/h 4.8 km/h 82 % 0.0 mm
11:32 23.3 °C 19.9 °C 1013.4 hPa Calm   6.4 km/h 81 % 0.0 mm
11:42 23.1 °C 19.5 °C 1013.4 hPa Calm   11.3 km/h 80 % 0.0 mm
11:47 23.2 °C 19.8 °C 1013.4 hPa Calm   6.4 km/h 81 % 0.0 mm
11:52 23.3 °C 19.5 °C 1013.4 hPa Calm   6.4 km/h 79 % 0.0 mm
11:57 23.3 °C 19.7 °C 1013.4 hPa Calm   6.4 km/h 80 % 0.0 mm
12:02 23.3 °C 19.2 °C 1013.4 hPa East 3.2 km/h 9.7 km/h 78 % 0.0 mm
12:07 23.3 °C 19.2 °C 1013.4 hPa ENE 4.8 km/h 12.9 km/h 78 % 0.0 mm
12:12 23.3 °C 19.5 °C 1013.4 hPa ENE 1.6 km/h 12.9 km/h 79 % 0.0 mm
12:17 23.6 °C 19.7 °C 1013.4 hPa SE 1.6 km/h 12.9 km/h 79 % 0.0 mm
12:22 23.9 °C 20.0 °C 1013.4 hPa ESE 6.4 km/h 12.9 km/h 79 % 0.0 mm
12:32 24.5 °C 19.6 °C 1013.4 hPa NE 1.6 km/h 11.3 km/h 74 % 0.0 mm
12:37 24.5 °C 19.6 °C 1013.1 hPa ENE 1.6 km/h 11.3 km/h 74 % 0.0 mm
12:47 23.9 °C 19.0 °C 1012.8 hPa East 4.8 km/h 12.9 km/h 74 % 0.0 mm
12:52 23.9 °C 19.2 °C 1012.8 hPa Calm   12.9 km/h 75 % 0.0 mm
12:57 24.0 °C 19.1 °C 1012.8 hPa ENE 6.4 km/h 12.9 km/h 74 % 0.0 mm
13:02 24.0 °C 19.1 °C 1012.8 hPa East 4.8 km/h 11.3 km/h 74 % 0.0 mm
13:07 24.3 °C 19.1 °C 1012.8 hPa East 6.4 km/h 14.5 km/h 73 % 0.0 mm
13:12 24.3 °C 18.9 °C 1012.4 hPa NNE 8.0 km/h 14.5 km/h 72 % 0.0 mm
13:17 24.4 °C 18.8 °C 1012.4 hPa ENE 6.4 km/h 14.5 km/h 71 % 0.0 mm
13:22 24.4 °C 18.8 °C 1012.4 hPa ENE 9.7 km/h 12.9 km/h 71 % 0.0 mm
13:27 24.4 °C 18.8 °C 1012.1 hPa ENE 9.7 km/h 14.5 km/h 71 % 0.0 mm
13:32 24.6 °C 18.8 °C 1012.4 hPa ENE 8.0 km/h 14.5 km/h 70 % 0.0 mm
13:37 24.7 °C 18.9 °C 1012.1 hPa East 6.4 km/h 14.5 km/h 70 % 0.0 mm
13:42 24.8 °C 18.5 °C 1012.1 hPa East 8.0 km/h 14.5 km/h 68 % 0.0 mm
13:47 24.9 °C 18.8 °C 1012.1 hPa East 6.4 km/h 14.5 km/h 69 % 0.0 mm
13:52 25.1 °C 19.0 °C 1012.1 hPa Calm   14.5 km/h 69 % 0.0 mm
13:57 25.5 °C 18.9 °C 1012.1 hPa East 8.0 km/h 14.5 km/h 67 % 0.0 mm
14:02 25.5 °C 19.2 °C 1012.1 hPa NE 4.8 km/h 12.9 km/h 68 % 0.0 mm
14:07 25.5 °C 19.4 °C 1012.1 hPa ENE 6.4 km/h 14.5 km/h 69 % 0.0 mm
14:12 25.4 °C 19.3 °C 1012.1 hPa ENE 4.8 km/h 14.5 km/h 69 % 0.0 mm
14:17 25.6 °C 19.5 °C 1011.7 hPa ENE 4.8 km/h 12.9 km/h 69 % 0.0 mm
14:27 25.6 °C 19.5 °C 1012.1 hPa ENE 6.4 km/h 11.3 km/h 69 % 0.0 mm
14:37 25.6 °C 19.0 °C 1011.7 hPa ENE 1.6 km/h 9.7 km/h 67 % 0.0 mm
14:42 25.4 °C 19.1 °C 1011.7 hPa ESE 1.6 km/h 9.7 km/h 68 % 0.0 mm
14:47 25.4 °C 19.1 °C 1011.7 hPa East 1.6 km/h 9.7 km/h 68 % 0.0 mm
14:52 25.4 °C 18.8 °C 1011.7 hPa NE 1.6 km/h 8.0 km/h 67 % 0.0 mm
15:02 25.5 °C 18.2 °C 1011.7 hPa ENE 3.2 km/h 6.4 km/h 64 % 0.0 mm
15:07 25.6 °C 18.3 °C 1011.7 hPa NE 1.6 km/h 6.4 km/h 64 % 0.0 mm
15:12 25.6 °C 17.5 °C 1011.7 hPa NE 4.8 km/h 6.4 km/h 61 % 0.0 mm
15:17 25.7 °C 18.1 °C 1011.7 hPa East 3.2 km/h 8.0 km/h 63 % 0.0 mm
15:22 25.6 °C 17.3 °C 1011.7 hPa NE 3.2 km/h 8.0 km/h 60 % 0.0 mm
15:27 25.6 °C 17.5 °C 1011.7 hPa NE 4.8 km/h 8.0 km/h 61 % 0.0 mm
15:32 25.7 °C 17.9 °C 1011.7 hPa ENE 1.6 km/h 8.0 km/h 62 % 0.0 mm
15:37 25.6 °C 18.0 °C 1011.7 hPa NE 3.2 km/h 4.8 km/h 63 % 0.0 mm
15:42 25.6 °C 18.0 °C 1011.7 hPa NE 6.4 km/h 6.4 km/h 63 % 0.0 mm
15:47 25.5 °C 18.2 °C 1011.4 hPa NNE 4.8 km/h 8.0 km/h 64 % 0.0 mm
15:52 25.5 °C 18.4 °C 1011.4 hPa NNE 9.7 km/h 11.3 km/h 65 % 0.0 mm
15:57 25.6 °C 18.3 °C 1011.4 hPa NNW 3.2 km/h 11.3 km/h 64 % 0.0 mm
16:02 25.9 °C 18.6 °C 1011.1 hPa North 4.8 km/h 11.3 km/h 64 % 0.0 mm
16:07 26.0 °C 17.9 °C 1011.1 hPa North 3.2 km/h 11.3 km/h 61 % 0.0 mm
16:12 26.2 °C 18.8 °C 1011.1 hPa North 6.4 km/h 11.3 km/h 64 % 0.0 mm
16:17 26.4 °C 18.5 °C 1011.1 hPa NNW 4.8 km/h 11.3 km/h 62 % 0.0 mm
16:22 26.5 °C 18.1 °C 1010.7 hPa NNW 3.2 km/h 12.9 km/h 60 % 0.0 mm
16:27 26.9 °C 18.5 °C 1010.7 hPa NNW 4.8 km/h 12.9 km/h 60 % 0.0 mm
16:32 27.3 °C 18.3 °C 1010.7 hPa Calm   11.3 km/h 58 % 0.0 mm
16:37 27.6 °C 18.0 °C 1010.7 hPa ENE 1.6 km/h 8.0 km/h 56 % 0.0 mm
16:42 27.9 °C 18.3 °C 1010.4 hPa ENE 8.0 km/h 8.0 km/h 56 % 0.0 mm
16:47 28.1 °C 18.2 °C 1010.4 hPa ENE 3.2 km/h 9.7 km/h 55 % 0.0 mm
16:57 27.9 °C 17.1 °C 1010.4 hPa SE 1.6 km/h 14.5 km/h 52 % 0.0 mm
17:02 27.8 °C 17.0 °C 1010.4 hPa ENE 6.4 km/h 16.1 km/h 52 % 0.0 mm
17:07 27.7 °C 17.2 °C 1010.4 hPa West 1.6 km/h 16.1 km/h 53 % 0.0 mm
17:12 27.7 °C 17.8 °C 1010.7 hPa ENE 3.2 km/h 12.9 km/h 55 % 0.0 mm
17:17 27.1 °C 18.9 °C 1010.7 hPa ESE 1.6 km/h 12.9 km/h 61 % 0.5 mm
17:22 24.9 °C 18.3 °C 1010.7 hPa ENE 12.9 km/h 24.1 km/h 67 % 0.5 mm
17:27 22.4 °C 17.3 °C 1010.7 hPa ENE 17.7 km/h 24.1 km/h 73 % 0.5 mm
17:32 21.3 °C 17.5 °C 1011.1 hPa NE 9.7 km/h 33.8 km/h 79 % 0.5 mm
17:37 20.8 °C 17.2 °C 1011.1 hPa NE 6.4 km/h 33.8 km/h 80 % 0.8 mm
17:42 20.6 °C 17.4 °C 1011.4 hPa NNW 3.2 km/h 29.0 km/h 82 % 1.3 mm
17:47 20.4 °C 17.0 °C 1011.4 hPa NE 14.5 km/h 22.5 km/h 81 % 2.3 mm
17:52 19.7 °C 17.1 °C 1011.4 hPa NE 32.2 km/h 32.2 km/h 85 % 4.6 mm
17:57 18.9 °C 16.7 °C 1011.1 hPa NE 22.5 km/h 32.2 km/h 87 % 6.1 mm
18:02 19.2 °C 17.3 °C 1011.4 hPa ENE 9.7 km/h 32.2 km/h 89 % 8.4 mm
18:07 19.3 °C 17.6 °C 1011.1 hPa NW 3.2 km/h 32.2 km/h 90 % 9.1 mm
18:12 19.3 °C 17.8 °C 1011.1 hPa NW 3.2 km/h 30.6 km/h 91 % 10.4 mm
18:17 19.3 °C 17.8 °C 1011.4 hPa Calm   22.5 km/h 91 % 11.7 mm
18:22 19.3 °C 18.0 °C 1011.4 hPa SE 3.2 km/h 8.0 km/h 92 % 12.7 mm
18:27 19.3 °C 18.0 °C 1011.4 hPa SSW 1.6 km/h 6.4 km/h 92 % 12.7 mm
18:32 19.4 °C 18.2 °C 1011.1 hPa South 1.6 km/h 6.4 km/h 93 % 13.0 mm
18:37 19.4 °C 18.2 °C 1011.1 hPa SSE 4.8 km/h 6.4 km/h 93 % 13.2 mm
18:42 19.4 °C 18.2 °C 1010.7 hPa Calm   6.4 km/h 93 % 11.9 mm
18:47 19.4 °C 18.2 °C 1010.7 hPa Calm   6.4 km/h 93 % 11.2 mm
18:52 19.4 °C 18.2 °C 1010.7 hPa Calm   4.8 km/h 93 % 9.7 mm
18:57 19.4 °C 18.2 °C 1010.7 hPa Calm   3.2 km/h 93 % 7.4 mm
19:02 19.6 °C 18.4 °C 1010.7 hPa WNW 1.6 km/h 3.2 km/h 93 % 5.3 mm
19:07 19.7 °C 18.7 °C 1010.7 hPa Calm   4.8 km/h 94 % 4.6 mm
19:12 19.8 °C 18.6 °C 1010.7 hPa Calm   4.8 km/h 93 % 3.3 mm
19:17 19.9 °C 18.7 °C 1010.7 hPa Calm   4.8 km/h 93 % 1.8 mm
19:22 19.9 °C 18.7 °C 1010.7 hPa Calm   4.8 km/h 93 % 1.0 mm
19:32 20.2 °C 19.2 °C 1010.7 hPa Calm   3.2 km/h 94 % 0.5 mm
19:37 20.3 °C 19.1 °C 1011.1 hPa Calm   3.2 km/h 93 % 0.3 mm
19:42 20.3 °C 19.3 °C 1011.1 hPa Calm   1.6 km/h 94 % 0.3 mm
19:47 20.3 °C 19.1 °C 1011.1 hPa WNW 1.6 km/h 1.6 km/h 93 % 0.3 mm
19:52 20.3 °C 19.1 °C 1011.1 hPa Calm   1.6 km/h 93 % 0.0 mm
19:57 20.3 °C 19.1 °C 1011.1 hPa Calm   1.6 km/h 93 % 0.0 mm
20:02 20.3 °C 19.1 °C 1011.1 hPa Calm   1.6 km/h 93 % 0.0 mm
20:12 20.2 °C 19.0 °C 1011.4 hPa Calm     93 % 0.0 mm
20:17 20.1 °C 19.1 °C 1011.4 hPa Calm     94 % 0.0 mm
20:22 20.1 °C 19.1 °C 1011.4 hPa Calm   1.6 km/h 94 % 0.0 mm
20:27 20.0 °C 19.0 °C 1011.4 hPa Calm   4.8 km/h 94 % 0.0 mm
20:32 19.9 °C 18.7 °C 1011.4 hPa Calm   4.8 km/h 93 % 0.0 mm
20:37 20.0 °C 18.8 °C 1011.4 hPa West 1.6 km/h 4.8 km/h 93 % 0.0 mm
20:42 20.2 °C 19.2 °C 1011.4 hPa West 1.6 km/h 4.8 km/h 94 % 0.0 mm
20:47 20.2 °C 19.2 °C 1011.4 hPa West 3.2 km/h 4.8 km/h 94 % 0.0 mm
20:52 20.2 °C 19.2 °C 1011.4 hPa WNW 3.2 km/h 4.8 km/h 94 % 0.0 mm
20:57 20.1 °C 19.1 °C 1011.4 hPa Calm   6.4 km/h 94 % 0.0 mm
21:02 20.1 °C 19.1 °C 1011.4 hPa Calm   6.4 km/h 94 % 0.0 mm
21:07 19.9 °C 18.9 °C 1011.4 hPa NNW 1.6 km/h 6.4 km/h 94 % 0.0 mm
21:12 19.8 °C 18.8 °C 1011.1 hPa Calm   3.2 km/h 94 % 0.0 mm
21:17 19.8 °C 18.8 °C 1011.1 hPa NW 1.6 km/h 3.2 km/h 94 % 0.0 mm
21:22 19.8 °C 18.8 °C 1011.1 hPa North 1.6 km/h 3.2 km/h 94 % 0.0 mm
21:32 19.8 °C 18.8 °C 1011.1 hPa Calm   3.2 km/h 94 % 0.0 mm
21:37 19.7 °C 18.7 °C 1011.1 hPa Calm   3.2 km/h 94 % 0.0 mm
21:42 19.8 °C 19.0 °C 1011.1 hPa NE 3.2 km/h 3.2 km/h 95 % 0.0 mm
21:47 19.7 °C 18.9 °C 1011.1 hPa ENE 1.6 km/h 4.8 km/h 95 % 0.0 mm
21:52 19.6 °C 18.6 °C 1011.1 hPa ENE 3.2 km/h 4.8 km/h 94 % 0.0 mm
21:57 19.5 °C 18.7 °C 1011.1 hPa NE 3.2 km/h 8.0 km/h 95 % 0.0 mm
22:02 19.4 °C 18.6 °C 1011.1 hPa Calm   8.0 km/h 95 % 0.0 mm
22:07 19.4 °C 18.6 °C 1011.4 hPa Calm   6.4 km/h 95 % 0.0 mm
22:12 19.3 °C 18.5 °C 1011.7 hPa Calm   3.2 km/h 95 % 0.0 mm
22:17 19.3 °C 18.5 °C 1011.7 hPa Calm     95 % 0.0 mm
22:22 19.2 °C 18.4 °C 1011.7 hPa Calm     95 % 0.0 mm
22:27 19.2 °C 18.4 °C 1011.7 hPa Calm     95 % 0.0 mm
22:32 19.2 °C 18.4 °C 1011.7 hPa Calm     95 % 0.0 mm
22:37 19.2 °C 18.4 °C 1012.1 hPa Calm     95 % 0.0 mm
22:42 19.2 °C 18.4 °C 1012.1 hPa Calm     95 % 0.0 mm
22:52 19.2 °C 18.4 °C 1012.1 hPa Calm     95 % 0.0 mm
22:57 19.1 °C 18.3 °C 1012.1 hPa Calm     95 % 0.0 mm
23:02 19.1 °C 18.4 °C 1012.1 hPa Calm     96 % 0.0 mm
23:07 19.1 °C 18.4 °C 1012.4 hPa Calm     96 % 0.0 mm
23:12 19.1 °C 18.4 °C 1012.4 hPa Calm     96 % 0.0 mm
23:17 19.1 °C 18.4 °C 1012.1 hPa Calm     96 % 0.0 mm
23:22 19.1 °C 18.4 °C 1012.4 hPa Calm     96 % 0.0 mm
23:27 19.0 °C 18.3 °C 1012.8 hPa WSW 3.2 km/h 3.2 km/h 96 % 0.0 mm
23:32 18.8 °C 18.1 °C 1012.4 hPa West 1.6 km/h 6.4 km/h 96 % 0.0 mm
23:37 18.7 °C 18.0 °C 1012.4 hPa Calm   6.4 km/h 96 % 0.0 mm
23:42 18.7 °C 18.0 °C 1012.4 hPa Calm   6.4 km/h 96 % 0.0 mm
23:52 18.6 °C 17.9 °C 1012.4 hPa Calm   1.6 km/h 96 % 0.0 mm
23:57 18.6 °C 17.9 °C 1012.4 hPa Calm   1.6 km/h 96 % 0.0 mm
Meteo18
Compliments of Weather Underground - 4 mb

Script developed by  Jim McMurry - jmcmurry@mwt.net Adapted for the template by  Wim van der Kuil - Leuven-Template.eu

You find our weather info also at:

European Weather Network

Weather Underground

Equipment we use:

Weather-station
Davis Vue

Weather-program
Meteohub

Weather-server
Raspberry PI 2 B+

Provider
1 and 1

Davis Vue

Meteohub

Raspberry PI 2 B+

1 and 1